Terminal Aerodrome Forecast
Issued by NWS Springfield, MO

Home | Current Version | Previous Version | Text Only | Print | Product List | Glossary On
Versions: 1 2 3 4 5 6 7 8 9 10 11 12 13 14 15 16 17 18 19 20 21 22 23 24
000
FTUS43 KSGF 242200 AAA
TAFSGF
TAF AMD
KSGF 242210Z 2422/2518 19014G22KT P6SM SCT035 BKN050
     FM242300 21010KT 5SM -TSRA SCT025CB
      TEMPO 2423/2424 1SM TSRA OVC025CB
     FM250130 25007KT P6SM SCT050 SCT250
     FM250300 VRB05KT P6SM SCT250=

USA.gov is the U.S. government's official web portal to all federal, state and local government web resources and services.